Pagrindinis puslapis
METAR-TAF:

METAR-TAF

Oro uostai :

Rijadas, Saudo Arabija

platuma: 24-43N, ilguma: 046-44E, Aukštis: 635 m

Dabartinis oras

Ataskaita buvo paskelbta 22 valandos ir 1 minutes, ne 03:00 UTC
Ramus vėjas
Temperatūra 27°C
Drėgmė 18%
Slėgis 1010 hPa
Matomumas 10 km arba daugiau
nėra debesų žemiau 1500 m ir nėra kamuolinių lietaus debesų

METAR: OERY 230300Z 00000KT CAVOK 27/01 Q1010

Laikas: 04:01 (01:01 UTC)


TAF: trūkstamas

Orai ataskaitas ir orų prognozės (METAR, TAF).

turimą stotys yra geltonos ir raudonos taškus žemėlapyje.

Perkelti pele per norėdami pamatyti stoties vardą.

Tada spustelėkite, norėdami matyti oro stebėjimo ir prognozės.

Norėdami pakeisti žemėlapį: spustelėkite ant žalios mygtukų su juodo kryžiaus žemyn,; žalią mygtuką su brūkšneliu, jei norite nutolinti; arba žalių rodyklių gretimoms žemėlapius.


METAR-TAF: